sensor_id;sensor_type;location;lat;lon;timestamp;P1;durP1;ratioP1;P2;durP2;ratioP2
44981;SDS011;30716;41.740;-70.400;2023-02-18T00:01:13;2.17;;;0.50;;
44981;SDS011;30716;41.740;-70.400;2023-02-18T00:03:42;1.00;;;0.60;;
44981;SDS011;30716;41.740;-70.400;2023-02-18T00:06:09;1.95;;;0.60;;
44981;SDS011;30716;41.740;-70.400;2023-02-18T00:08:37;2.05;;;0.60;;
44981;SDS011;30716;41.740;-70.400;2023-02-18T00:11:06;1.15;;;0.50;;
44981;SDS011;30716;41.740;-70.400;2023-02-18T00:13:33;2.53;;;0.70;;
44981;SDS011;30716;41.740;-70.400;2023-02-18T00:16:01;1.90;;;0.80;;
44981;SDS011;30716;41.740;-70.400;2023-02-18T00:18:29;1.90;;;0.80;;
44981;SDS011;30716;41.740;-70.400;2023-02-18T00:20:55;1.92;;;0.75;;
44981;SDS011;30716;41.740;-70.400;2023-02-18T00:23:21;2.33;;;0.60;;
44981;SDS011;30716;41.740;-70.400;2023-02-18T00:25:48;1.23;;;0.57;;
44981;SDS011;30716;41.740;-70.400;2023-02-18T00:28:15;4.20;;;0.75;;
44981;SDS011;30716;41.740;-70.400;2023-02-18T00:30:42;1.55;;;0.60;;
44981;SDS011;30716;41.740;-70.400;2023-02-18T00:33:08;1.50;;;0.43;;
44981;SDS011;30716;41.740;-70.400;2023-02-18T00:35:35;3.58;;;0.73;;
44981;SDS011;30716;41.740;-70.400;2023-02-18T00:38:01;1.55;;;0.60;;
44981;SDS011;30716;41.740;-70.400;2023-02-18T00:40:28;0.80;;;0.45;;
44981;SDS011;30716;41.740;-70.400;2023-02-18T00:42:54;3.60;;;1.02;;
44981;SDS011;30716;41.740;-70.400;2023-02-18T00:45:20;1.40;;;0.60;;
44981;SDS011;30716;41.740;-70.400;2023-02-18T00:47:46;2.28;;;0.60;;
44981;SDS011;30716;41.740;-70.400;2023-02-18T00:50:13;2.50;;;0.80;;
44981;SDS011;30716;41.740;-70.400;2023-02-18T00:52:39;1.15;;;0.47;;
44981;SDS011;30716;41.740;-70.400;2023-02-18T00:55:05;2.58;;;0.40;;
44981;SDS011;30716;41.740;-70.400;2023-02-18T00:57:32;1.95;;;0.60;;
44981;SDS011;30716;41.740;-70.400;2023-02-18T00:59:58;2.00;;;0.50;;
44981;SDS011;30716;41.740;-70.400;2023-02-18T01:02:25;2.65;;;0.70;;
44981;SDS011;30716;41.740;-70.400;2023-02-18T01:04:51;4.32;;;1.27;;
44981;SDS011;30716;41.740;-70.400;2023-02-18T01:07:18;2.80;;;0.60;;
44981;SDS011;30716;41.740;-70.400;2023-02-18T01:09:44;2.70;;;0.60;;
44981;SDS011;30716;41.740;-70.400;2023-02-18T01:12:10;2.75;;;0.50;;
44981;SDS011;30716;41.740;-70.400;2023-02-18T01:14:36;1.83;;;0.68;;
44981;SDS011;30716;41.740;-70.400;2023-02-18T01:17:03;3.70;;;0.63;;
44981;SDS011;30716;41.740;-70.400;2023-02-18T01:19:29;2.88;;;1.17;;
44981;SDS011;30716;41.740;-70.400;2023-02-18T01:21:55;1.65;;;0.60;;
44981;SDS011;30716;41.740;-70.400;2023-02-18T01:24:21;1.20;;;0.40;;
44981;SDS011;30716;41.740;-70.400;2023-02-18T01:26:48;2.28;;;0.70;;
44981;SDS011;30716;41.740;-70.400;2023-02-18T01:29:14;1.80;;;0.55;;
44981;SDS011;30716;41.740;-70.400;2023-02-18T01:31:40;0.65;;;0.40;;
44981;SDS011;30716;41.740;-70.400;2023-02-18T01:34:06;1.60;;;0.50;;
44981;SDS011;30716;41.740;-70.400;2023-02-18T01:36:33;1.35;;;0.50;;
44981;SDS011;30716;41.740;-70.400;2023-02-18T01:38:59;3.28;;;0.50;;
44981;SDS011;30716;41.740;-70.400;2023-02-18T01:41:25;1.17;;;0.75;;
44981;SDS011;30716;41.740;-70.400;2023-02-18T01:46:54;3.00;;;0.90;;
44981;SDS011;30716;41.740;-70.400;2023-02-18T01:49:25;2.53;;;0.50;;
44981;SDS011;30716;41.740;-70.400;2023-02-18T01:52:04;4.00;;;0.95;;
44981;SDS011;30716;41.740;-70.400;2023-02-18T01:54:37;3.03;;;0.70;;
44981;SDS011;30716;41.740;-70.400;2023-02-18T01:57:10;1.35;;;0.55;;
44981;SDS011;30716;41.740;-70.400;2023-02-18T01:59:51;3.08;;;0.63;;
44981;SDS011;30716;41.740;-70.400;2023-02-18T02:02:23;2.13;;;0.52;;
44981;SDS011;30716;41.740;-70.400;2023-02-18T02:04:51;1.63;;;0.73;;
44981;SDS011;30716;41.740;-70.400;2023-02-18T02:07:19;1.55;;;0.55;;
44981;SDS011;30716;41.740;-70.400;2023-02-18T02:09:47;1.45;;;0.55;;
44981;SDS011;30716;41.740;-70.400;2023-02-18T02:29:11;3.95;;;0.85;;
44981;SDS011;30716;41.740;-70.400;2023-02-18T02:36:50;3.25;;;0.70;;
44981;SDS011;30716;41.740;-70.400;2023-02-18T02:42:43;2.22;;;0.82;;
44981;SDS011;30716;41.740;-70.400;2023-02-18T02:48:02;2.42;;;0.70;;
44981;SDS011;30716;41.740;-70.400;2023-02-18T02:53:24;1.58;;;0.63;;
44981;SDS011;30716;41.740;-70.400;2023-02-18T02:55:54;2.28;;;0.80;;
44981;SDS011;30716;41.740;-70.400;2023-02-18T02:58:21;2.88;;;0.68;;
44981;SDS011;30716;41.740;-70.400;2023-02-18T03:09:03;2.83;;;1.00;;
44981;SDS011;30716;41.740;-70.400;2023-02-18T03:12:06;3.72;;;0.90;;
44981;SDS011;30716;41.740;-70.400;2023-02-18T03:17:15;4.20;;;1.27;;
44981;SDS011;30716;41.740;-70.400;2023-02-18T03:19:54;2.75;;;0.90;;
44981;SDS011;30716;41.740;-70.400;2023-02-18T03:22:30;2.20;;;1.00;;
44981;SDS011;30716;41.740;-70.400;2023-02-18T03:27:33;3.15;;;1.08;;
44981;SDS011;30716;41.740;-70.400;2023-02-18T03:33:15;2.38;;;1.15;;
44981;SDS011;30716;41.740;-70.400;2023-02-18T03:35:45;6.18;;;1.40;;
44981;SDS011;30716;41.740;-70.400;2023-02-18T03:38:18;3.10;;;0.93;;
44981;SDS011;30716;41.740;-70.400;2023-02-18T03:40:51;3.60;;;1.15;;
44981;SDS011;30716;41.740;-70.400;2023-02-18T03:43:18;4.13;;;1.40;;
44981;SDS011;30716;41.740;-70.400;2023-02-18T03:45:44;3.42;;;0.98;;
44981;SDS011;30716;41.740;-70.400;2023-02-18T03:48:10;3.20;;;0.85;;
44981;SDS011;30716;41.740;-70.400;2023-02-18T03:50:36;4.53;;;1.30;;
44981;SDS011;30716;41.740;-70.400;2023-02-18T03:53:03;3.83;;;1.27;;
44981;SDS011;30716;41.740;-70.400;2023-02-18T03:55:29;3.53;;;1.17;;
44981;SDS011;30716;41.740;-70.400;2023-02-18T03:57:56;4.30;;;1.23;;
44981;SDS011;30716;41.740;-70.400;2023-02-18T04:00:22;4.53;;;1.05;;
44981;SDS011;30716;41.740;-70.400;2023-02-18T04:02:51;2.65;;;1.35;;
44981;SDS011;30716;41.740;-70.400;2023-02-18T04:05:17;4.65;;;1.30;;
44981;SDS011;30716;41.740;-70.400;2023-02-18T04:07:43;3.60;;;1.42;;
44981;SDS011;30716;41.740;-70.400;2023-02-18T04:10:10;1.95;;;1.00;;
44981;SDS011;30716;41.740;-70.400;2023-02-18T04:12:36;3.40;;;1.25;;
44981;SDS011;30716;41.740;-70.400;2023-02-18T04:15:02;3.35;;;1.30;;
44981;SDS011;30716;41.740;-70.400;2023-02-18T04:17:29;3.53;;;1.00;;
44981;SDS011;30716;41.740;-70.400;2023-02-18T04:19:57;4.22;;;1.25;;
44981;SDS011;30716;41.740;-70.400;2023-02-18T04:22:24;4.63;;;1.17;;
44981;SDS011;30716;41.740;-70.400;2023-02-18T04:24:50;2.97;;;1.60;;
44981;SDS011;30716;41.740;-70.400;2023-02-18T04:27:16;2.88;;;1.50;;
44981;SDS011;30716;41.740;-70.400;2023-02-18T04:29:42;3.47;;;1.30;;
44981;SDS011;30716;41.740;-70.400;2023-02-18T04:32:09;4.70;;;1.33;;
44981;SDS011;30716;41.740;-70.400;2023-02-18T04:34:35;5.70;;;1.80;;
44981;SDS011;30716;41.740;-70.400;2023-02-18T04:37:02;6.18;;;1.77;;
44981;SDS011;30716;41.740;-70.400;2023-02-18T04:39:28;2.63;;;1.50;;
44981;SDS011;30716;41.740;-70.400;2023-02-18T04:41:54;4.10;;;1.10;;
44981;SDS011;30716;41.740;-70.400;2023-02-18T04:44:20;3.22;;;1.10;;
44981;SDS011;30716;41.740;-70.400;2023-02-18T04:46:47;5.55;;;1.83;;
44981;SDS011;30716;41.740;-70.400;2023-02-18T04:49:13;4.38;;;1.50;;
44981;SDS011;30716;41.740;-70.400;2023-02-18T04:51:39;6.93;;;1.67;;
44981;SDS011;30716;41.740;-70.400;2023-02-18T04:54:05;5.28;;;1.40;;
44981;SDS011;30716;41.740;-70.400;2023-02-18T04:56:32;6.85;;;1.80;;
44981;SDS011;30716;41.740;-70.400;2023-02-18T04:58:58;2.80;;;1.52;;
44981;SDS011;30716;41.740;-70.400;2023-02-18T05:01:25;3.33;;;1.23;;
44981;SDS011;30716;41.740;-70.400;2023-02-18T05:03:52;4.05;;;1.20;;
44981;SDS011;30716;41.740;-70.400;2023-02-18T05:06:18;3.67;;;1.20;;
44981;SDS011;30716;41.740;-70.400;2023-02-18T05:08:44;6.18;;;2.00;;
44981;SDS011;30716;41.740;-70.400;2023-02-18T05:11:10;3.22;;;1.50;;
44981;SDS011;30716;41.740;-70.400;2023-02-18T05:13:37;5.95;;;2.08;;
44981;SDS011;30716;41.740;-70.400;2023-02-18T05:16:03;4.07;;;1.48;;
44981;SDS011;30716;41.740;-70.400;2023-02-18T05:18:29;2.97;;;1.17;;
44981;SDS011;30716;41.740;-70.400;2023-02-18T05:20:56;5.05;;;1.52;;
44981;SDS011;30716;41.740;-70.400;2023-02-18T05:23:22;2.17;;;0.88;;
44981;SDS011;30716;41.740;-70.400;2023-02-18T05:25:50;4.38;;;1.90;;
44981;SDS011;30716;41.740;-70.400;2023-02-18T05:28:16;5.35;;;1.30;;
44981;SDS011;30716;41.740;-70.400;2023-02-18T05:30:42;3.33;;;1.20;;
44981;SDS011;30716;41.740;-70.400;2023-02-18T05:33:09;2.92;;;1.40;;
44981;SDS011;30716;41.740;-70.400;2023-02-18T05:35:35;3.45;;;1.20;;
44981;SDS011;30716;41.740;-70.400;2023-02-18T05:38:01;3.17;;;1.08;;
44981;SDS011;30716;41.740;-70.400;2023-02-18T05:40:28;2.65;;;1.10;;
44981;SDS011;30716;41.740;-70.400;2023-02-18T05:42:54;5.68;;;1.45;;
44981;SDS011;30716;41.740;-70.400;2023-02-18T05:45:20;3.25;;;1.23;;
44981;SDS011;30716;41.740;-70.400;2023-02-18T05:47:47;4.68;;;1.25;;
44981;SDS011;30716;41.740;-70.400;2023-02-18T05:50:13;4.72;;;1.52;;
44981;SDS011;30716;41.740;-70.400;2023-02-18T05:52:39;3.40;;;1.45;;
44981;SDS011;30716;41.740;-70.400;2023-02-18T05:55:06;3.30;;;1.30;;
44981;SDS011;30716;41.740;-70.400;2023-02-18T05:57:32;2.83;;;1.33;;
44981;SDS011;30716;41.740;-70.400;2023-02-18T05:59:58;4.25;;;1.20;;
44981;SDS011;30716;41.740;-70.400;2023-02-18T06:02:25;3.80;;;1.27;;
44981;SDS011;30716;41.740;-70.400;2023-02-18T06:05:24;2.58;;;1.38;;
44981;SDS011;30716;41.740;-70.400;2023-02-18T06:07:56;4.50;;;1.60;;
44981;SDS011;30716;41.740;-70.400;2023-02-18T06:10:22;3.95;;;1.25;;
44981;SDS011;30716;41.740;-70.400;2023-02-18T06:12:49;5.35;;;1.42;;
44981;SDS011;30716;41.740;-70.400;2023-02-18T06:15:15;3.33;;;1.35;;
44981;SDS011;30716;41.740;-70.400;2023-02-18T06:17:41;3.22;;;1.33;;
44981;SDS011;30716;41.740;-70.400;2023-02-18T06:20:08;3.42;;;1.20;;
44981;SDS011;30716;41.740;-70.400;2023-02-18T06:22:34;5.70;;;1.73;;
44981;SDS011;30716;41.740;-70.400;2023-02-18T06:25:01;1.38;;;0.95;;
44981;SDS011;30716;41.740;-70.400;2023-02-18T06:27:27;4.00;;;1.20;;
44981;SDS011;30716;41.740;-70.400;2023-02-18T06:29:53;2.03;;;0.77;;
44981;SDS011;30716;41.740;-70.400;2023-02-18T06:32:19;4.30;;;1.40;;
44981;SDS011;30716;41.740;-70.400;2023-02-18T06:34:46;3.78;;;1.70;;
44981;SDS011;30716;41.740;-70.400;2023-02-18T06:37:12;3.75;;;1.20;;
44981;SDS011;30716;41.740;-70.400;2023-02-18T06:39:38;3.40;;;1.35;;
44981;SDS011;30716;41.740;-70.400;2023-02-18T06:42:04;5.82;;;1.98;;
44981;SDS011;30716;41.740;-70.400;2023-02-18T06:44:31;3.20;;;1.40;;
44981;SDS011;30716;41.740;-70.400;2023-02-18T06:46:57;3.83;;;1.63;;
44981;SDS011;30716;41.740;-70.400;2023-02-18T06:49:23;5.53;;;1.83;;
44981;SDS011;30716;41.740;-70.400;2023-02-18T06:51:49;3.42;;;1.20;;
44981;SDS011;30716;41.740;-70.400;2023-02-18T06:54:16;4.40;;;1.45;;
44981;SDS011;30716;41.740;-70.400;2023-02-18T06:56:42;4.07;;;1.30;;
44981;SDS011;30716;41.740;-70.400;2023-02-18T06:59:08;2.25;;;1.08;;
44981;SDS011;30716;41.740;-70.400;2023-02-18T07:01:35;3.90;;;1.58;;
44981;SDS011;30716;41.740;-70.400;2023-02-18T07:04:02;3.78;;;1.38;;
44981;SDS011;30716;41.740;-70.400;2023-02-18T07:06:28;4.35;;;1.63;;
44981;SDS011;30716;41.740;-70.400;2023-02-18T07:08:54;3.97;;;1.80;;
44981;SDS011;30716;41.740;-70.400;2023-02-18T07:11:21;3.78;;;1.38;;
44981;SDS011;30716;41.740;-70.400;2023-02-18T07:13:47;2.97;;;0.93;;
44981;SDS011;30716;41.740;-70.400;2023-02-18T07:16:13;2.85;;;1.10;;
44981;SDS011;30716;41.740;-70.400;2023-02-18T07:18:39;4.32;;;1.30;;
44981;SDS011;30716;41.740;-70.400;2023-02-18T07:21:06;5.93;;;1.55;;
44981;SDS011;30716;41.740;-70.400;2023-02-18T07:23:32;3.75;;;1.02;;
44981;SDS011;30716;41.740;-70.400;2023-02-18T07:26:09;3.85;;;1.38;;
44981;SDS011;30716;41.740;-70.400;2023-02-18T07:28:37;4.10;;;1.63;;
44981;SDS011;30716;41.740;-70.400;2023-02-18T07:31:04;4.30;;;1.58;;
44981;SDS011;30716;41.740;-70.400;2023-02-18T07:33:30;4.28;;;1.35;;
44981;SDS011;30716;41.740;-70.400;2023-02-18T07:35:58;3.80;;;1.23;;
44981;SDS011;30716;41.740;-70.400;2023-02-18T07:38:25;2.10;;;1.15;;
44981;SDS011;30716;41.740;-70.400;2023-02-18T07:40:52;5.43;;;1.25;;
44981;SDS011;30716;41.740;-70.400;2023-02-18T07:43:25;2.92;;;1.20;;
44981;SDS011;30716;41.740;-70.400;2023-02-18T07:45:52;3.20;;;1.00;;
44981;SDS011;30716;41.740;-70.400;2023-02-18T07:48:18;3.65;;;1.25;;
44981;SDS011;30716;41.740;-70.400;2023-02-18T07:50:45;6.18;;;1.38;;
44981;SDS011;30716;41.740;-70.400;2023-02-18T07:53:12;3.83;;;1.63;;
44981;SDS011;30716;41.740;-70.400;2023-02-18T07:55:40;3.33;;;1.30;;
44981;SDS011;30716;41.740;-70.400;2023-02-18T07:58:14;3.63;;;1.67;;
44981;SDS011;30716;41.740;-70.400;2023-02-18T08:00:40;2.95;;;1.33;;
44981;SDS011;30716;41.740;-70.400;2023-02-18T08:03:06;3.35;;;1.45;;
44981;SDS011;30716;41.740;-70.400;2023-02-18T08:05:33;4.57;;;1.70;;
44981;SDS011;30716;41.740;-70.400;2023-02-18T08:07:59;2.80;;;1.48;;
44981;SDS011;30716;41.740;-70.400;2023-02-18T08:10:26;6.25;;;1.40;;
44981;SDS011;30716;41.740;-70.400;2023-02-18T08:12:52;4.55;;;1.30;;
44981;SDS011;30716;41.740;-70.400;2023-02-18T08:15:18;4.10;;;1.45;;
44981;SDS011;30716;41.740;-70.400;2023-02-18T08:17:44;3.85;;;1.23;;
44981;SDS011;30716;41.740;-70.400;2023-02-18T08:20:10;4.38;;;1.58;;
44981;SDS011;30716;41.740;-70.400;2023-02-18T08:22:37;3.13;;;1.30;;
44981;SDS011;30716;41.740;-70.400;2023-02-18T08:25:04;3.17;;;1.23;;
44981;SDS011;30716;41.740;-70.400;2023-02-18T08:27:31;3.22;;;1.58;;
44981;SDS011;30716;41.740;-70.400;2023-02-18T08:29:57;3.30;;;1.35;;
44981;SDS011;30716;41.740;-70.400;2023-02-18T08:32:25;5.70;;;1.75;;
44981;SDS011;30716;41.740;-70.400;2023-02-18T08:34:53;4.03;;;1.30;;
44981;SDS011;30716;41.740;-70.400;2023-02-18T08:37:20;4.18;;;1.77;;
44981;SDS011;30716;41.740;-70.400;2023-02-18T08:39:48;5.07;;;1.60;;
44981;SDS011;30716;41.740;-70.400;2023-02-18T08:42:14;3.30;;;1.30;;
44981;SDS011;30716;41.740;-70.400;2023-02-18T08:44:40;2.35;;;1.02;;
44981;SDS011;30716;41.740;-70.400;2023-02-18T08:47:07;4.18;;;1.13;;
44981;SDS011;30716;41.740;-70.400;2023-02-18T08:49:33;4.55;;;1.50;;
44981;SDS011;30716;41.740;-70.400;2023-02-18T08:52:01;5.70;;;1.58;;
44981;SDS011;30716;41.740;-70.400;2023-02-18T08:54:28;3.47;;;1.30;;
44981;SDS011;30716;41.740;-70.400;2023-02-18T08:56:58;3.85;;;1.17;;
44981;SDS011;30716;41.740;-70.400;2023-02-18T08:59:25;5.28;;;1.38;;
44981;SDS011;30716;41.740;-70.400;2023-02-18T09:01:51;5.45;;;1.58;;
44981;SDS011;30716;41.740;-70.400;2023-02-18T09:04:18;4.32;;;1.52;;
44981;SDS011;30716;41.740;-70.400;2023-02-18T09:06:46;4.28;;;1.40;;
44981;SDS011;30716;41.740;-70.400;2023-02-18T09:09:12;3.78;;;1.40;;
44981;SDS011;30716;41.740;-70.400;2023-02-18T09:11:39;5.50;;;1.83;;
44981;SDS011;30716;41.740;-70.400;2023-02-18T09:14:05;2.65;;;1.10;;
44981;SDS011;30716;41.740;-70.400;2023-02-18T09:16:31;2.53;;;1.20;;
44981;SDS011;30716;41.740;-70.400;2023-02-18T09:18:58;3.15;;;1.33;;
44981;SDS011;30716;41.740;-70.400;2023-02-18T09:21:25;3.35;;;1.05;;
44981;SDS011;30716;41.740;-70.400;2023-02-18T09:23:52;5.22;;;1.35;;
44981;SDS011;30716;41.740;-70.400;2023-02-18T09:26:19;4.05;;;1.27;;
44981;SDS011;30716;41.740;-70.400;2023-02-18T09:28:47;4.88;;;1.48;;
44981;SDS011;30716;41.740;-70.400;2023-02-18T09:31:16;2.95;;;1.20;;
44981;SDS011;30716;41.740;-70.400;2023-02-18T09:33:54;2.15;;;1.00;;
44981;SDS011;30716;41.740;-70.400;2023-02-18T09:36:23;2.88;;;1.30;;
44981;SDS011;30716;41.740;-70.400;2023-02-18T09:38:49;4.10;;;1.27;;
44981;SDS011;30716;41.740;-70.400;2023-02-18T09:41:30;4.15;;;1.42;;
44981;SDS011;30716;41.740;-70.400;2023-02-18T09:46:40;4.75;;;1.58;;
44981;SDS011;30716;41.740;-70.400;2023-02-18T09:49:17;3.78;;;1.40;;
44981;SDS011;30716;41.740;-70.400;2023-02-18T09:51:47;5.22;;;1.45;;
44981;SDS011;30716;41.740;-70.400;2023-02-18T09:54:15;3.67;;;1.38;;
44981;SDS011;30716;41.740;-70.400;2023-02-18T09:56:44;4.95;;;1.60;;
44981;SDS011;30716;41.740;-70.400;2023-02-18T09:59:16;4.72;;;1.17;;
44981;SDS011;30716;41.740;-70.400;2023-02-18T10:01:45;4.85;;;1.35;;
44981;SDS011;30716;41.740;-70.400;2023-02-18T10:04:18;3.47;;;1.23;;
44981;SDS011;30716;41.740;-70.400;2023-02-18T10:07:07;3.30;;;1.50;;
44981;SDS011;30716;41.740;-70.400;2023-02-18T10:09:48;5.38;;;1.42;;
44981;SDS011;30716;41.740;-70.400;2023-02-18T10:12:18;5.72;;;1.60;;
44981;SDS011;30716;41.740;-70.400;2023-02-18T10:14:50;5.70;;;1.10;;
44981;SDS011;30716;41.740;-70.400;2023-02-18T10:17:18;2.97;;;1.13;;
44981;SDS011;30716;41.740;-70.400;2023-02-18T10:19:48;4.72;;;1.35;;
44981;SDS011;30716;41.740;-70.400;2023-02-18T10:22:16;5.15;;;1.10;;
44981;SDS011;30716;41.740;-70.400;2023-02-18T10:24:45;4.13;;;1.20;;
44981;SDS011;30716;41.740;-70.400;2023-02-18T10:27:18;3.53;;;1.20;;
44981;SDS011;30716;41.740;-70.400;2023-02-18T10:29:50;3.35;;;1.10;;
44981;SDS011;30716;41.740;-70.400;2023-02-18T10:32:20;7.47;;;1.40;;
44981;SDS011;30716;41.740;-70.400;2023-02-18T10:37:53;3.90;;;1.45;;
44981;SDS011;30716;41.740;-70.400;2023-02-18T10:43:13;3.67;;;1.05;;
44981;SDS011;30716;41.740;-70.400;2023-02-18T10:45:48;5.90;;;1.30;;
44981;SDS011;30716;41.740;-70.400;2023-02-18T10:51:21;4.03;;;1.30;;
44981;SDS011;30716;41.740;-70.400;2023-02-18T10:53:58;6.50;;;1.63;;
44981;SDS011;30716;41.740;-70.400;2023-02-18T10:59:12;4.28;;;1.35;;
44981;SDS011;30716;41.740;-70.400;2023-02-18T11:01:55;5.15;;;1.30;;
44981;SDS011;30716;41.740;-70.400;2023-02-18T11:04:34;4.10;;;1.77;;
44981;SDS011;30716;41.740;-70.400;2023-02-18T11:07:10;3.13;;;1.50;;
44981;SDS011;30716;41.740;-70.400;2023-02-18T11:09:41;3.88;;;1.05;;
44981;SDS011;30716;41.740;-70.400;2023-02-18T11:12:16;4.18;;;1.23;;
44981;SDS011;30716;41.740;-70.400;2023-02-18T11:14:45;4.07;;;1.52;;
44981;SDS011;30716;41.740;-70.400;2023-02-18T11:17:23;4.63;;;1.10;;
44981;SDS011;30716;41.740;-70.400;2023-02-18T11:19:56;4.95;;;1.20;;
44981;SDS011;30716;41.740;-70.400;2023-02-18T11:22:33;3.67;;;1.30;;
44981;SDS011;30716;41.740;-70.400;2023-02-18T11:25:17;3.53;;;1.20;;
44981;SDS011;30716;41.740;-70.400;2023-02-18T11:30:24;5.47;;;1.30;;
44981;SDS011;30716;41.740;-70.400;2023-02-18T11:33:00;3.75;;;1.30;;
44981;SDS011;30716;41.740;-70.400;2023-02-18T11:35:31;4.85;;;1.00;;
44981;SDS011;30716;41.740;-70.400;2023-02-18T11:37:58;3.90;;;1.20;;
44981;SDS011;30716;41.740;-70.400;2023-02-18T11:41:00;3.25;;;1.30;;
44981;SDS011;30716;41.740;-70.400;2023-02-18T11:43:42;2.13;;;1.02;;
44981;SDS011;30716;41.740;-70.400;2023-02-18T11:46:22;3.60;;;1.23;;
44981;SDS011;30716;41.740;-70.400;2023-02-18T11:48:51;3.88;;;1.10;;
44981;SDS011;30716;41.740;-70.400;2023-02-18T11:51:32;3.47;;;1.27;;
44981;SDS011;30716;41.740;-70.400;2023-02-18T11:54:21;3.72;;;0.90;;
44981;SDS011;30716;41.740;-70.400;2023-02-18T11:56:55;3.55;;;1.08;;
44981;SDS011;30716;41.740;-70.400;2023-02-18T11:59:34;3.92;;;1.30;;
44981;SDS011;30716;41.740;-70.400;2023-02-18T12:04:47;4.55;;;1.27;;
44981;SDS011;30716;41.740;-70.400;2023-02-18T12:10:19;2.85;;;1.10;;
44981;SDS011;30716;41.740;-70.400;2023-02-18T12:32:29;4.03;;;1.02;;
44981;SDS011;30716;41.740;-70.400;2023-02-18T12:35:06;3.08;;;0.98;;
44981;SDS011;30716;41.740;-70.400;2023-02-18T12:46:27;3.65;;;0.98;;
44981;SDS011;30716;41.740;-70.400;2023-02-18T12:49:08;3.80;;;1.20;;
44981;SDS011;30716;41.740;-70.400;2023-02-18T12:57:06;3.03;;;1.10;;
44981;SDS011;30716;41.740;-70.400;2023-02-18T13:08:24;2.10;;;0.85;;
44981;SDS011;30716;41.740;-70.400;2023-02-18T13:13:59;3.65;;;1.10;;
44981;SDS011;30716;41.740;-70.400;2023-02-18T13:16:49;4.72;;;1.40;;
44981;SDS011;30716;41.740;-70.400;2023-02-18T13:21:48;4.13;;;1.08;;
44981;SDS011;30716;41.740;-70.400;2023-02-18T13:24:51;3.65;;;1.25;;
44981;SDS011;30716;41.740;-70.400;2023-02-18T13:37:56;3.03;;;0.98;;
44981;SDS011;30716;41.740;-70.400;2023-02-18T13:40:37;5.10;;;1.30;;
44981;SDS011;30716;41.740;-70.400;2023-02-18T13:43:18;3.05;;;0.85;;
44981;SDS011;30716;41.740;-70.400;2023-02-18T13:46:01;3.83;;;0.93;;
44981;SDS011;30716;41.740;-70.400;2023-02-18T13:48:28;3.28;;;1.17;;
44981;SDS011;30716;41.740;-70.400;2023-02-18T13:50:59;3.13;;;1.17;;
44981;SDS011;30716;41.740;-70.400;2023-02-18T13:53:31;2.85;;;0.95;;
44981;SDS011;30716;41.740;-70.400;2023-02-18T13:56:26;3.00;;;0.90;;
44981;SDS011;30716;41.740;-70.400;2023-02-18T13:59:17;4.00;;;1.10;;
44981;SDS011;30716;41.740;-70.400;2023-02-18T14:01:51;3.00;;;0.90;;
44981;SDS011;30716;41.740;-70.400;2023-02-18T14:04:35;3.20;;;0.90;;
44981;SDS011;30716;41.740;-70.400;2023-02-18T14:07:49;4.10;;;1.00;;
44981;SDS011;30716;41.740;-70.400;2023-02-18T14:16:05;3.25;;;0.88;;
44981;SDS011;30716;41.740;-70.400;2023-02-18T14:21:50;2.00;;;1.00;;
44981;SDS011;30716;41.740;-70.400;2023-02-18T14:24:05;2.70;;;0.88;;
44981;SDS011;30716;41.740;-70.400;2023-02-18T14:26:44;2.78;;;1.00;;
44981;SDS011;30716;41.740;-70.400;2023-02-18T14:29:18;2.60;;;1.05;;
44981;SDS011;30716;41.740;-70.400;2023-02-18T14:32:00;3.45;;;1.00;;
44981;SDS011;30716;41.740;-70.400;2023-02-18T14:37:52;2.60;;;1.08;;
44981;SDS011;30716;41.740;-70.400;2023-02-18T14:51:38;2.65;;;1.42;;
44981;SDS011;30716;41.740;-70.400;2023-02-18T14:54:06;1.95;;;0.65;;
44981;SDS011;30716;41.740;-70.400;2023-02-18T14:56:44;2.38;;;0.82;;
44981;SDS011;30716;41.740;-70.400;2023-02-18T14:59:23;3.53;;;0.90;;
44981;SDS011;30716;41.740;-70.400;2023-02-18T15:01:53;2.83;;;0.85;;
44981;SDS011;30716;41.740;-70.400;2023-02-18T15:04:21;2.55;;;1.25;;
44981;SDS011;30716;41.740;-70.400;2023-02-18T15:07:03;2.10;;;0.80;;
44981;SDS011;30716;41.740;-70.400;2023-02-18T15:11:59;2.25;;;0.85;;
44981;SDS011;30716;41.740;-70.400;2023-02-18T15:14:38;2.95;;;1.00;;
44981;SDS011;30716;41.740;-70.400;2023-02-18T15:17:07;2.50;;;1.05;;
44981;SDS011;30716;41.740;-70.400;2023-02-18T15:19:45;2.03;;;1.23;;
44981;SDS011;30716;41.740;-70.400;2023-02-18T15:22:20;3.83;;;1.10;;
44981;SDS011;30716;41.740;-70.400;2023-02-18T15:24:48;2.92;;;1.00;;
44981;SDS011;30716;41.740;-70.400;2023-02-18T15:27:27;2.75;;;1.02;;
44981;SDS011;30716;41.740;-70.400;2023-02-18T15:29:56;2.35;;;1.05;;
44981;SDS011;30716;41.740;-70.400;2023-02-18T15:32:31;2.33;;;0.68;;
44981;SDS011;30716;41.740;-70.400;2023-02-18T15:34:59;2.42;;;1.20;;
44981;SDS011;30716;41.740;-70.400;2023-02-18T15:37:27;4.35;;;1.10;;
44981;SDS011;30716;41.740;-70.400;2023-02-18T15:39:54;2.35;;;1.00;;
44981;SDS011;30716;41.740;-70.400;2023-02-18T15:42:25;1.65;;;0.57;;
44981;SDS011;30716;41.740;-70.400;2023-02-18T15:44:57;2.88;;;0.77;;
44981;SDS011;30716;41.740;-70.400;2023-02-18T15:47:43;1.80;;;0.75;;
44981;SDS011;30716;41.740;-70.400;2023-02-18T15:50:23;2.00;;;0.90;;
44981;SDS011;30716;41.740;-70.400;2023-02-18T15:52:53;3.20;;;0.98;;
44981;SDS011;30716;41.740;-70.400;2023-02-18T15:57:59;2.72;;;0.80;;
44981;SDS011;30716;41.740;-70.400;2023-02-18T16:00:38;1.88;;;0.75;;
44981;SDS011;30716;41.740;-70.400;2023-02-18T16:03:15;2.40;;;0.70;;
44981;SDS011;30716;41.740;-70.400;2023-02-18T16:05:49;2.33;;;0.90;;
44981;SDS011;30716;41.740;-70.400;2023-02-18T16:08:31;2.40;;;0.88;;
44981;SDS011;30716;41.740;-70.400;2023-02-18T16:11:16;3.88;;;0.90;;
44981;SDS011;30716;41.740;-70.400;2023-02-18T16:13:45;5.20;;;1.08;;
44981;SDS011;30716;41.740;-70.400;2023-02-18T16:16:23;2.47;;;0.90;;
44981;SDS011;30716;41.740;-70.400;2023-02-18T16:18:54;2.15;;;0.90;;
44981;SDS011;30716;41.740;-70.400;2023-02-18T16:21:22;2.45;;;0.70;;
44981;SDS011;30716;41.740;-70.400;2023-02-18T16:28:53;0.70;;;0.40;;
44981;SDS011;30716;41.740;-70.400;2023-02-18T16:31:20;2.13;;;0.70;;
44981;SDS011;30716;41.740;-70.400;2023-02-18T16:33:47;2.22;;;0.90;;
44981;SDS011;30716;41.740;-70.400;2023-02-18T16:36:14;2.05;;;0.50;;
44981;SDS011;30716;41.740;-70.400;2023-02-18T16:38:42;3.30;;;1.17;;
44981;SDS011;30716;41.740;-70.400;2023-02-18T16:41:11;1.63;;;0.60;;
44981;SDS011;30716;41.740;-70.400;2023-02-18T16:43:38;1.52;;;0.80;;
44981;SDS011;30716;41.740;-70.400;2023-02-18T16:46:07;2.28;;;1.17;;
44981;SDS011;30716;41.740;-70.400;2023-02-18T16:48:40;2.92;;;0.75;;
44981;SDS011;30716;41.740;-70.400;2023-02-18T16:51:50;2.60;;;0.70;;
44981;SDS011;30716;41.740;-70.400;2023-02-18T16:53:58;3.40;;;0.77;;
44981;SDS011;30716;41.740;-70.400;2023-02-18T16:56:26;2.35;;;0.70;;
44981;SDS011;30716;41.740;-70.400;2023-02-18T16:58:56;2.33;;;0.93;;
44981;SDS011;30716;41.740;-70.400;2023-02-18T17:01:26;1.10;;;0.57;;
44981;SDS011;30716;41.740;-70.400;2023-02-18T17:04:02;1.48;;;0.70;;
44981;SDS011;30716;41.740;-70.400;2023-02-18T17:06:30;2.27;;;0.87;;
44981;SDS011;30716;41.740;-70.400;2023-02-18T17:08:57;1.30;;;0.68;;
44981;SDS011;30716;41.740;-70.400;2023-02-18T17:11:28;1.90;;;0.70;;
44981;SDS011;30716;41.740;-70.400;2023-02-18T17:13:56;2.38;;;1.17;;
44981;SDS011;30716;41.740;-70.400;2023-02-18T17:16:23;1.10;;;0.60;;
44981;SDS011;30716;41.740;-70.400;2023-02-18T17:18:50;1.50;;;0.50;;
44981;SDS011;30716;41.740;-70.400;2023-02-18T17:21:19;2.25;;;0.70;;
44981;SDS011;30716;41.740;-70.400;2023-02-18T17:23:47;1.30;;;0.57;;